METAR AND TAF INFORMATION
METAR FOR RJCC
ADDS - METARS form results

(2211 UTC 04 August 2020)
Data provider http://aviationweather.gov/metar/data/
 
METAR text: RJCC 042200Z 17008KT 2500 -SHRA BR FEW002 SCT004 BKN006 23/23 Q1012 RMK 1ST002 4ST004 6ST006 A2989
Conditions at: RJCC (CHITOSE (JASDF/C, JP) observed 2200 UTC 04 August 2020
Temperature: 23.0°C (73°F)
Dewpoint: 23.0°C (73°F) [RH = 100%]
Pressure (altimeter): 29.88 inches Hg (1012.0 mb)
Winds: from the S (170 degrees) at 9 MPH (8 knots; 4.1 m/s)
Visibility: 1.55 miles (2.49 km)
Ceiling: 600 feet AGL
Clouds: few clouds at 200 feet AGL
scattered clouds at 400 feet AGL
broken clouds at 600 feet AGL
Weather: -SHRA BR  (light rain showers, mist)

METAR text: RJCC 042142Z 15008KT 2000 R19R/P2000N R19L/P2000N -SHRA BR FEW002 SCT003 BKN006 22/22 Q1012 RMK 1ST002 4ST003 6ST006 A2989
Conditions at: RJCC (CHITOSE (JASDF/C, JP) observed 2142 UTC 04 August 2020
Temperature: 22.0°C (72°F)
Dewpoint: 22.0°C (72°F) [RH = 100%]
Pressure (altimeter): 29.88 inches Hg (1012.0 mb)
Winds: from the SSE (150 degrees) at 9 MPH (8 knots; 4.1 m/s)
Visibility: 1.24 miles (2.00 km)
Ceiling: 600 feet AGL
Clouds: few clouds at 200 feet AGL
scattered clouds at 300 feet AGL
broken clouds at 600 feet AGL
Weather: -SHRA BR  (light rain showers, mist)

METAR text: RJCC 042130Z 15010KT 1800 R19R/0900VP2000U R19L/1400VP2000U SHRA BR FEW002 BKN003 BKN005 22/22 Q1012
Conditions at: RJCC (CHITOSE (JASDF/C, JP) observed 2130 UTC 04 August 2020
Temperature: 22.0°C (72°F)
Dewpoint: 22.0°C (72°F) [RH = 100%]
Pressure (altimeter): 29.88 inches Hg (1012.0 mb)
Winds: from the SSE (150 degrees) at 12 MPH (10 knots; 5.1 m/s)
Visibility: 1.12 miles (1.80 km)
Ceiling: 300 feet AGL
Clouds: few clouds at 200 feet AGL
broken clouds at 300 feet AGL
broken clouds at 500 feet AGL
Weather: SHRA BR  (rain showers, mist)

METAR text: RJCC 042119Z 17010KT 1400 R19R/0900VP2000D R19L/1600VP2000N +SHRA BR FEW002 BKN003 22/22 Q1012 RMK 1ST002 6ST003 A2989 RI++
Conditions at: RJCC (CHITOSE (JASDF/C, JP) observed 2119 UTC 04 August 2020
Temperature: 22.0°C (72°F)
Dewpoint: 22.0°C (72°F) [RH = 100%]
Pressure (altimeter): 29.88 inches Hg (1012.0 mb)
Winds: from the S (170 degrees) at 12 MPH (10 knots; 5.1 m/s)
Visibility: 0.87 miles (1.40 km)
Ceiling: 300 feet AGL
Clouds: few clouds at 200 feet AGL
broken clouds at 300 feet AGL
Weather: +SHRA BR  (heavy rain showers, mist)

METAR text: RJCC 042115Z 17010KT 1800 SHRA BR FEW002 BKN003 22/22 Q1012 RMK 1ST002 6ST003 A2990
Conditions at: RJCC (CHITOSE (JASDF/C, JP) observed 2115 UTC 04 August 2020
Temperature: 22.0°C (72°F)
Dewpoint: 22.0°C (72°F) [RH = 100%]
Pressure (altimeter): 29.88 inches Hg (1012.0 mb)
Winds: from the S (170 degrees) at 12 MPH (10 knots; 5.1 m/s)
Visibility: 1.12 miles (1.80 km)
Ceiling: 300 feet AGL
Clouds: few clouds at 200 feet AGL
broken clouds at 300 feet AGL
Weather: SHRA BR  (rain showers, mist)

Forecast for: RJCC (CHITOSE (JASDF/C, JP)
Text: TAF RJCC 041705Z 0418/0600 16008KT 9999 FEW003 BKN015
Forecast period: 1800 UTC 04 August 2020 to 1200 UTC 05 August 2020
Forecast type: FROM: standard forecast or significant change
Winds: from the SSE (160 degrees) at 9 MPH (8 knots; 4.1 m/s)
Visibility: 6 or more miles 10+ km)
Ceiling: 1500 feet AGL
Clouds: few clouds at 300 feet AGL
broken clouds at 1500 feet AGL
Weather: no significant weather forecast for this period
Text: TEMPO 0418/0421 1500 -SHRA BR FEW001 BKN003
Forecast period: 1800 to 2100 UTC 04 August 2020
Forecast type: TEMPORARY: The following changes expected for less than half the time period
Visibility: 0.93 miles (1.50 km)
Ceiling: 300 feet AGL
Clouds: few clouds at 100 feet AGL
broken clouds at 300 feet AGL
Weather: -SHRA BR  (light rain showers, mist)
Text: TEMPO 0421/0500 2000 SHRA BR FEW001 BKN003 FEW025CB
Forecast period: 2100 UTC 04 August 2020 to 0000 UTC 05 August 2020
Forecast type: TEMPORARY: The following changes expected for less than half the time period
Visibility: 1.24 miles (2.00 km)
Ceiling: 300 feet AGL
Clouds: few clouds at 100 feet AGL
broken clouds at 300 feet AGL
few clouds at 2500 feet AGL
Weather: SHRA BR  (rain showers, mist)
Text: TEMPO 0503/0509 FEW008 BKN025 FEW025CB
Forecast period: 0300 to 0900 UTC 05 August 2020
Forecast type: TEMPORARY: The following changes expected for less than half the time period
Visibility: missing
Ceiling: 2500 feet AGL
Clouds: few clouds at 800 feet AGL
broken clouds at 2500 feet AGL
few clouds at 2500 feet AGL
Weather: no significant weather forecast for this period
Text: BECMG 0512/0515 3000 BR FEW004 BKN006
Forecast period: 1200 UTC 05 August 2020 to 0000 UTC 06 August 2020
Forecast type: BECOMING: Conditions expected to become as follows by 1500 UTC 05 August 2020
Winds: from the SSE (160 degrees) at 9 MPH (8 knots; 4.1 m/s)
Visibility: 1.86 miles (2.99 km)
Ceiling: 600 feet AGL
Clouds: few clouds at 400 feet AGL
broken clouds at 600 feet AGL
Weather: BR  (mist)
Text: TEMPO 0521/0600 1500 SHRA BR FEW001 BKN003 FEW025CB
Forecast period: 2100 UTC 05 August 2020 to 0000 UTC 06 August 2020
Forecast type: TEMPORARY: The following changes expected for less than half the time period
Visibility: 0.93 miles (1.50 km)
Ceiling: 300 feet AGL
Clouds: few clouds at 100 feet AGL
broken clouds at 300 feet AGL
few clouds at 2500 feet AGL
Weather: SHRA BR  (rain showers, mist)

 AIRPORT MAP

 RUNWAY INFORMATION
Runway 01L Runway length 9840 ft Runway width 200 ft
Runway elevation 62 ft Runway displaced threshold 0 ft Runway heading 353
Runway 19R Runway length 9840 ft Runway width 200 ft
Runway elevation 82 ft Runway displaced threshold 0 ft Runway heading 173
Runway 01R Runway length 9840 ft Runway width 200 ft
Runway elevation 57 ft Runway displaced threshold 0 ft Runway heading 353
Runway 19L Runway length 9840 ft Runway width 200 ft
Runway elevation 77 ft Runway displaced threshold 0 ft Runway heading 173

 AIRPORT FREQUENCIES
Type APP Name CHITOSE AP Frequency 120.1 MHZ
Type ATIS Name ATIS Frequency 128.6 MHZ
Type CLD Name CHITOSE CL Frequency 121.9 MHZ
Type DEP Name CHITOSE DE Frequency 124.7 MHZ
Type GND Name CHITOSE GN Frequency 121.6 MHZ
Type TCA Name TCA Frequency 127.7 MHZ
Type TWR Name CHITOSE TW Frequency 118.8 MHZ

 AIRPORT NEAR NAVIGATION AIDS
Type VOR-DME Name Mukawa Frequency 116400 KHZ
Type NDB Name Naganuma Frequency 377 KHZ



Powered by Virtual Airlines Manager [v2.6.2]